Time;durP1;ratioP1;P1;durP2;ratioP2;P2;SDS_P1;SDS_P2;PMS_P1;PMS_P2;Temp;Humidity;BMP_temperature;BMP_pressure;BME280_temperature;BME280_humidity;BME280_pressure;Samples;Min_cycle;Max_cycle;Signal;HPM_P1;HPM_P2
2021/10/19 00:01:39;;;;;;;;;;;24.00;35.80;;;;;;484626;246;1177;-72
2021/10/19 00:03:40;;;;;;;;;;;24.00;35.80;;;;;;484633;246;1136;-72
2021/10/19 00:05:41;;;;;;;;;;;24.00;35.70;;;;;;484587;246;941;-72
2021/10/19 00:07:43;;;;;;;;;;;24.00;35.60;;;;;;484479;246;1094;-72
2021/10/19 00:09:44;;;;;;;;;;;23.90;35.80;;;;;;484566;246;1201;-73
2021/10/19 00:11:45;;;;;;;;;;;23.90;35.90;;;;;;484570;246;1300;-73
2021/10/19 00:13:47;;;;;;;;;;;23.90;35.80;;;;;;484600;246;1048;-73
2021/10/19 00:15:48;;;;;;;;;;;23.90;35.80;;;;;;484506;246;2179;-72
2021/10/19 00:17:49;;;;;;;;;;;23.90;35.80;;;;;;484436;246;1168;-72
2021/10/19 00:19:51;;;;;;;;;;;23.90;35.70;;;;;;484583;246;938;-73
2021/10/19 00:21:52;;;;;;;;;;;23.90;35.70;;;;;;484517;246;1180;-73
2021/10/19 00:23:54;;;;;;;;;;;23.90;35.80;;;;;;484488;246;1148;-73
2021/10/19 00:25:55;;;;;;;;;;;23.90;35.80;;;;;;484483;246;1118;-73
2021/10/19 00:27:57;;;;;;;;;;;23.90;35.80;;;;;;484486;246;1205;-72
2021/10/19 00:29:57;;;;;;;;;;;23.90;35.80;;;;;;484575;246;1503;-73
2021/10/19 00:31:59;;;;;;;;;;;23.90;35.70;;;;;;484618;246;1155;-73
2021/10/19 00:34:00;;;;;;;;;;;23.90;35.70;;;;;;484628;246;1153;-73
2021/10/19 00:36:01;;;;;;;;;;;23.80;35.70;;;;;;484599;246;2117;-73
2021/10/19 00:38:03;;;;;;;;;;;23.90;35.70;;;;;;484652;246;1137;-72
2021/10/19 00:40:04;;;;;;;;;;;23.90;35.50;;;;;;484579;246;1137;-73
2021/10/19 00:42:06;;;;;;;;;;;23.90;35.60;;;;;;484452;243;1225;-73
2021/10/19 00:44:07;;;;;;;;;;;23.90;35.50;;;;;;484562;246;1093;-73
2021/10/19 00:46:12;;;;;;;;;;;23.90;35.50;;;;;;484521;246;1100;-72
2021/10/19 00:48:15;;;;;;;;;;;24.00;35.40;;;;;;484348;246;1460;-72
2021/10/19 00:50:12;;;;;;;;;;;23.90;35.40;;;;;;484430;246;1411;-72
2021/10/19 00:52:13;;;;;;;;;;;23.90;35.30;;;;;;484519;246;1237;-72
2021/10/19 00:54:15;;;;;;;;;;;23.90;35.30;;;;;;484567;246;1179;-72
2021/10/19 00:56:16;;;;;;;;;;;23.90;35.20;;;;;;484461;246;2199;-72
2021/10/19 00:58:17;;;;;;;;;;;23.90;35.20;;;;;;484595;246;1134;-73
2021/10/19 01:00:19;;;;;;;;;;;23.90;35.20;;;;;;484617;246;986;-72
2021/10/19 01:02:20;;;;;;;;;;;23.90;35.10;;;;;;484625;246;1276;-72
2021/10/19 01:04:21;;;;;;;;;;;23.90;35.10;;;;;;484604;246;955;-72
2021/10/19 01:06:23;;;;;;;;;;;23.90;35.20;;;;;;484543;246;1143;-72
2021/10/19 01:08:24;;;;;;;;;;;23.90;35.10;;;;;;484615;246;1189;-72
2021/10/19 01:10:25;;;;;;;;;;;23.90;35.00;;;;;;484646;246;1174;-72
2021/10/19 01:12:27;;;;;;;;;;;23.90;35.00;;;;;;484586;246;1194;-72
2021/10/19 01:14:28;;;;;;;;;;;23.90;35.10;;;;;;484599;246;968;-73
2021/10/19 01:16:29;;;;;;;;;;;23.90;35.10;;;;;;484513;246;2196;-73
2021/10/19 01:18:31;;;;;;;;;;;23.90;34.90;;;;;;484576;246;1059;-73
2021/10/19 01:20:32;;;;;;;;;;;23.90;35.00;;;;;;484613;246;1299;-72
2021/10/19 01:22:33;;;;;;;;;;;23.90;34.80;;;;;;484607;246;1215;-73
2021/10/19 01:24:35;;;;;;;;;;;23.90;34.90;;;;;;484545;246;1155;-73
2021/10/19 01:26:36;;;;;;;;;;;23.80;34.90;;;;;;484494;246;1178;-72
2021/10/19 01:28:38;;;;;;;;;;;23.80;35.00;;;;;;484622;246;960;-72
2021/10/19 01:30:39;;;;;;;;;;;23.70;35.00;;;;;;484535;246;1233;-73
2021/10/19 01:32:40;;;;;;;;;;;23.80;35.00;;;;;;484538;242;1076;-72
2021/10/19 01:34:41;;;;;;;;;;;23.80;34.80;;;;;;484529;246;1040;-73
2021/10/19 01:36:43;;;;;;;;;;;23.80;34.80;;;;;;484452;242;2200;-72
2021/10/19 01:38:44;;;;;;;;;;;23.70;34.90;;;;;;484538;246;1033;-72
2021/10/19 01:40:46;;;;;;;;;;;23.80;34.80;;;;;;484517;246;1279;-72
2021/10/19 01:42:47;;;;;;;;;;;23.90;34.70;;;;;;484515;246;945;-72
2021/10/19 01:44:48;;;;;;;;;;;23.80;34.50;;;;;;484515;246;1079;-72
2021/10/19 01:46:49;;;;;;;;;;;23.90;34.60;;;;;;484440;246;1093;-72
2021/10/19 01:48:51;;;;;;;;;;;23.80;34.50;;;;;;484544;246;1043;-72
2021/10/19 01:50:52;;;;;;;;;;;23.90;34.40;;;;;;484613;246;956;-72
2021/10/19 01:52:53;;;;;;;;;;;23.90;34.40;;;;;;484568;246;1109;-72
2021/10/19 01:54:55;;;;;;;;;;;23.90;34.30;;;;;;484593;246;1219;-72
2021/10/19 01:56:56;;;;;;;;;;;23.70;34.50;;;;;;484417;243;2113;-72
2021/10/19 01:58:57;;;;;;;;;;;23.80;34.60;;;;;;484496;246;1015;-72
2021/10/19 02:00:59;;;;;;;;;;;23.90;34.40;;;;;;484442;246;1012;-72
2021/10/19 02:03:00;;;;;;;;;;;23.80;34.30;;;;;;484524;246;1116;-72
2021/10/19 02:05:01;;;;;;;;;;;23.80;34.30;;;;;;484582;246;951;-72
2021/10/19 02:07:03;;;;;;;;;;;23.80;34.20;;;;;;484465;246;1681;-72
2021/10/19 02:09:04;;;;;;;;;;;23.90;34.20;;;;;;484568;246;1211;-72
2021/10/19 02:11:05;;;;;;;;;;;23.90;34.10;;;;;;484505;246;1191;-72
2021/10/19 02:13:07;;;;;;;;;;;23.80;34.20;;;;;;484494;246;1097;-72
2021/10/19 02:15:08;;;;;;;;;;;23.90;34.10;;;;;;484501;246;1061;-72
2021/10/19 02:17:09;;;;;;;;;;;23.90;34.00;;;;;;484409;246;2210;-72
2021/10/19 02:19:11;;;;;;;;;;;23.90;34.00;;;;;;484546;246;984;-72
2021/10/19 02:21:12;;;;;;;;;;;23.80;34.10;;;;;;484649;243;1141;-72
2021/10/19 02:23:13;;;;;;;;;;;23.80;34.00;;;;;;484621;246;951;-73
2021/10/19 02:25:15;;;;;;;;;;;23.80;34.10;;;;;;484642;246;1167;-72
2021/10/19 02:27:16;;;;;;;;;;;23.80;34.00;;;;;;484566;242;1083;-72
2021/10/19 02:29:17;;;;;;;;;;;23.90;33.90;;;;;;484609;246;940;-73
2021/10/19 02:31:19;;;;;;;;;;;23.90;33.80;;;;;;484523;243;1188;-73
2021/10/19 02:33:21;;;;;;;;;;;23.80;33.90;;;;;;484630;246;952;-73
2021/10/19 02:35:21;;;;;;;;;;;23.70;34.00;;;;;;484622;246;1419;-73
2021/10/19 02:37:23;;;;;;;;;;;23.80;33.90;;;;;;484484;246;2175;-72
2021/10/19 02:39:24;;;;;;;;;;;23.80;33.90;;;;;;484582;246;1395;-72
2021/10/19 02:41:26;;;;;;;;;;;23.80;33.80;;;;;;484484;246;1130;-72
2021/10/19 02:43:27;;;;;;;;;;;23.80;33.80;;;;;;484591;246;1072;-72
2021/10/19 02:45:28;;;;;;;;;;;23.80;33.70;;;;;;484617;246;1140;-72
2021/10/19 02:47:29;;;;;;;;;;;23.90;33.60;;;;;;484587;246;1011;-73
2021/10/19 02:49:31;;;;;;;;;;;23.80;33.50;;;;;;484642;246;951;-72
2021/10/19 02:51:32;;;;;;;;;;;23.80;33.70;;;;;;484597;246;1089;-73
2021/10/19 02:53:33;;;;;;;;;;;23.70;33.60;;;;;;484597;246;984;-73
2021/10/19 02:55:35;;;;;;;;;;;23.80;33.60;;;;;;484597;246;1263;-73
2021/10/19 02:57:36;;;;;;;;;;;23.80;33.40;;;;;;484577;246;2128;-73
2021/10/19 02:59:37;;;;;;;;;;;23.90;33.40;;;;;;484601;246;1079;-73
2021/10/19 03:01:39;;;;;;;;;;;23.80;33.30;;;;;;484517;246;1114;-73
2021/10/19 03:03:40;;;;;;;;;;;23.70;33.40;;;;;;484570;246;1031;-72
2021/10/19 03:05:41;;;;;;;;;;;23.70;33.40;;;;;;484566;246;1186;-72
2021/10/19 03:07:43;;;;;;;;;;;23.80;33.40;;;;;;484566;246;1019;-72
2021/10/19 03:09:44;;;;;;;;;;;23.80;33.30;;;;;;484594;246;1175;-72
2021/10/19 03:11:45;;;;;;;;;;;23.80;33.20;;;;;;484518;246;1237;-72
2021/10/19 03:13:47;;;;;;;;;;;23.70;33.30;;;;;;484577;246;1001;-72
2021/10/19 03:15:48;;;;;;;;;;;23.80;33.10;;;;;;484612;246;1097;-72
2021/10/19 03:17:50;;;;;;;;;;;23.80;33.10;;;;;;484583;246;2206;-72
2021/10/19 03:19:51;;;;;;;;;;;23.80;33.10;;;;;;484580;246;958;-72
2021/10/19 03:21:52;;;;;;;;;;;23.80;33.20;;;;;;484495;246;1181;-72
2021/10/19 03:23:54;;;;;;;;;;;23.70;33.20;;;;;;484559;246;1007;-72
2021/10/19 03:25:55;;;;;;;;;;;23.80;33.30;;;;;;484590;246;1206;-72
2021/10/19 03:27:56;;;;;;;;;;;23.70;33.20;;;;;;484498;246;1088;-72
2021/10/19 03:29:58;;;;;;;;;;;23.80;33.20;;;;;;484491;246;1019;-72
2021/10/19 03:31:59;;;;;;;;;;;23.80;33.10;;;;;;484607;246;947;-72
2021/10/19 03:34:00;;;;;;;;;;;23.80;33.10;;;;;;484545;246;1176;-73
2021/10/19 03:36:03;;;;;;;;;;;23.80;33.00;;;;;;484509;246;993;-73
2021/10/19 03:38:03;;;;;;;;;;;23.80;33.00;;;;;;484480;246;2183;-73
2021/10/19 03:40:04;;;;;;;;;;;23.90;32.90;;;;;;484571;246;1152;-73
2021/10/19 03:42:06;;;;;;;;;;;23.80;32.90;;;;;;484587;246;1166;-72
2021/10/19 03:44:07;;;;;;;;;;;23.90;32.90;;;;;;484551;246;1481;-73
2021/10/19 03:46:08;;;;;;;;;;;23.80;32.90;;;;;;484528;246;1098;-73
2021/10/19 03:48:10;;;;;;;;;;;23.80;32.80;;;;;;484521;246;1146;-72
2021/10/19 03:50:11;;;;;;;;;;;23.80;32.80;;;;;;484592;246;1065;-72
2021/10/19 03:52:12;;;;;;;;;;;23.90;32.80;;;;;;484511;246;1262;-73
2021/10/19 03:54:14;;;;;;;;;;;23.90;32.80;;;;;;484546;246;1122;-73
2021/10/19 03:56:15;;;;;;;;;;;23.90;32.80;;;;;;484574;246;1278;-73
2021/10/19 03:58:17;;;;;;;;;;;23.90;32.80;;;;;;484558;246;2192;-73
2021/10/19 04:00:18;;;;;;;;;;;23.80;32.60;;;;;;484542;246;976;-73
2021/10/19 04:02:19;;;;;;;;;;;23.90;32.60;;;;;;484539;246;1091;-73
2021/10/19 04:04:21;;;;;;;;;;;24.00;32.60;;;;;;484568;246;1069;-73
2021/10/19 04:06:22;;;;;;;;;;;23.90;32.50;;;;;;484482;246;1080;-73
2021/10/19 04:08:23;;;;;;;;;;;23.90;32.60;;;;;;484533;246;1104;-73
2021/10/19 04:10:25;;;;;;;;;;;24.00;32.40;;;;;;484499;246;1112;-72
2021/10/19 04:12:26;;;;;;;;;;;23.90;32.40;;;;;;484512;246;1259;-72
2021/10/19 04:14:27;;;;;;;;;;;24.00;32.50;;;;;;484502;246;966;-72
2021/10/19 04:16:28;;;;;;;;;;;23.90;32.40;;;;;;484494;246;1016;-72
2021/10/19 04:18:30;;;;;;;;;;;24.00;32.30;;;;;;484311;246;2124;-72
2021/10/19 04:20:31;;;;;;;;;;;24.00;32.30;;;;;;484522;246;1078;-72
2021/10/19 04:22:32;;;;;;;;;;;24.00;32.40;;;;;;484474;246;1484;-72
2021/10/19 04:24:34;;;;;;;;;;;23.90;32.30;;;;;;484545;246;1040;-72
2021/10/19 04:26:35;;;;;;;;;;;24.00;32.40;;;;;;484383;246;1166;-72
2021/10/19 04:28:36;;;;;;;;;;;23.90;32.30;;;;;;484297;246;1072;-73
2021/10/19 04:30:38;;;;;;;;;;;23.90;32.40;;;;;;484514;246;1042;-73
2021/10/19 04:32:39;;;;;;;;;;;23.90;32.40;;;;;;484471;246;1573;-73
2021/10/19 04:34:40;;;;;;;;;;;23.90;32.30;;;;;;484518;246;985;-73
2021/10/19 04:36:42;;;;;;;;;;;24.00;32.20;;;;;;484453;246;1196;-73
2021/10/19 04:38:43;;;;;;;;;;;24.10;32.00;;;;;;484442;246;2211;-73
2021/10/19 04:40:44;;;;;;;;;;;24.00;32.00;;;;;;484415;246;1151;-72
2021/10/19 04:42:46;;;;;;;;;;;23.90;32.20;;;;;;484339;246;1146;-73
2021/10/19 04:44:48;;;;;;;;;;;24.00;32.20;;;;;;484317;246;1066;-72
2021/10/19 04:46:48;;;;;;;;;;;24.00;32.20;;;;;;484168;246;1441;-73
2021/10/19 04:48:50;;;;;;;;;;;24.00;32.00;;;;;;484223;246;1165;-73
2021/10/19 04:50:51;;;;;;;;;;;24.00;32.10;;;;;;484180;246;1127;-73
2021/10/19 04:52:52;;;;;;;;;;;24.00;32.10;;;;;;484139;246;1129;-72
2021/10/19 04:54:53;;;;;;;;;;;24.00;32.10;;;;;;484289;246;1005;-72
2021/10/19 04:56:55;;;;;;;;;;;24.00;32.10;;;;;;484048;246;1645;-72
2021/10/19 04:58:56;;;;;;;;;;;24.00;32.10;;;;;;484185;246;2120;-72
2021/10/19 05:00:57;;;;;;;;;;;24.00;32.10;;;;;;484342;246;1143;-72
2021/10/19 05:02:59;;;;;;;;;;;23.90;32.10;;;;;;484377;246;1043;-73
2021/10/19 05:05:00;;;;;;;;;;;23.90;32.10;;;;;;484328;246;1327;-72
2021/10/19 05:07:02;;;;;;;;;;;23.90;32.10;;;;;;484221;246;1297;-72
2021/10/19 05:09:03;;;;;;;;;;;23.90;32.00;;;;;;484215;246;953;-72
2021/10/19 05:11:04;;;;;;;;;;;24.00;32.10;;;;;;484270;246;1206;-73
2021/10/19 05:13:06;;;;;;;;;;;24.00;32.00;;;;;;484268;246;965;-72
2021/10/19 05:15:07;;;;;;;;;;;23.90;32.10;;;;;;484200;246;1029;-73
2021/10/19 05:17:10;;;;;;;;;;;24.00;31.90;;;;;;484109;246;1113;-72
2021/10/19 05:19:10;;;;;;;;;;;24.00;31.90;;;;;;484050;246;2183;-72
2021/10/19 05:21:11;;;;;;;;;;;24.00;31.90;;;;;;484135;246;1334;-72
2021/10/19 05:23:12;;;;;;;;;;;24.00;31.80;;;;;;484190;246;1104;-73
2021/10/19 05:25:15;;;;;;;;;;;24.00;31.80;;;;;;484150;246;1089;-73
2021/10/19 05:27:15;;;;;;;;;;;24.00;31.80;;;;;;483977;246;1322;-73
2021/10/19 05:29:16;;;;;;;;;;;24.00;31.70;;;;;;484063;246;986;-73
2021/10/19 05:31:18;;;;;;;;;;;24.00;31.80;;;;;;484079;246;1187;-72
2021/10/19 05:33:19;;;;;;;;;;;24.00;31.80;;;;;;484224;246;1050;-72
2021/10/19 05:35:20;;;;;;;;;;;24.00;31.80;;;;;;484000;246;977;-72
2021/10/19 05:37:22;;;;;;;;;;;24.00;31.80;;;;;;483947;246;2132;-73
2021/10/19 05:39:23;;;;;;;;;;;23.90;31.80;;;;;;483958;246;1259;-72
2021/10/19 05:41:24;;;;;;;;;;;24.00;31.80;;;;;;483967;246;1236;-72
2021/10/19 05:43:26;;;;;;;;;;;24.00;31.70;;;;;;484016;246;1217;-72
2021/10/19 05:45:27;;;;;;;;;;;24.00;31.70;;;;;;484018;246;962;-72
2021/10/19 05:47:28;;;;;;;;;;;24.00;31.70;;;;;;483942;246;1171;-73
2021/10/19 05:49:30;;;;;;;;;;;24.00;31.70;;;;;;484006;246;1042;-73
2021/10/19 05:51:31;;;;;;;;;;;24.00;31.70;;;;;;484148;246;1213;-72
2021/10/19 05:53:32;;;;;;;;;;;23.90;31.80;;;;;;484231;246;962;-72
2021/10/19 05:55:34;;;;;;;;;;;23.80;32.10;;;;;;484051;246;994;-73
2021/10/19 05:57:35;;;;;;;;;;;24.00;31.90;;;;;;483997;246;2171;-72
2021/10/19 05:59:36;;;;;;;;;;;24.00;31.80;;;;;;484015;246;1127;-72
2021/10/19 06:01:38;;;;;;;;;;;23.90;31.90;;;;;;483978;246;1127;-72
2021/10/19 06:03:39;;;;;;;;;;;24.00;31.80;;;;;;484036;246;1077;-72
2021/10/19 06:05:41;;;;;;;;;;;24.00;31.90;;;;;;484051;246;1221;-72
2021/10/19 06:07:42;;;;;;;;;;;23.90;31.90;;;;;;483965;246;1340;-72
2021/10/19 06:09:43;;;;;;;;;;;23.90;32.10;;;;;;483983;246;980;-72
2021/10/19 06:11:44;;;;;;;;;;;24.00;32.00;;;;;;483972;246;1232;-72
2021/10/19 06:13:46;;;;;;;;;;;23.90;32.00;;;;;;483909;246;1091;-72
2021/10/19 06:15:47;;;;;;;;;;;23.90;32.10;;;;;;483857;246;1111;-72
2021/10/19 06:17:49;;;;;;;;;;;24.00;32.00;;;;;;483733;246;2128;-72
2021/10/19 06:19:50;;;;;;;;;;;24.00;32.00;;;;;;483773;246;978;-73
2021/10/19 06:21:52;;;;;;;;;;;24.00;31.90;;;;;;483718;246;1277;-72
2021/10/19 06:23:53;;;;;;;;;;;23.90;32.10;;;;;;483633;246;1098;-72
2021/10/19 06:25:54;;;;;;;;;;;23.90;32.00;;;;;;483862;246;1034;-73
2021/10/19 06:27:56;;;;;;;;;;;23.90;32.20;;;;;;483844;241;1285;-72
2021/10/19 06:29:57;;;;;;;;;;;23.80;32.20;;;;;;483663;246;1042;-72
2021/10/19 06:31:59;;;;;;;;;;;23.80;32.30;;;;;;483591;246;1031;-72
2021/10/19 06:34:00;;;;;;;;;;;23.80;32.40;;;;;;483519;246;1195;-73
2021/10/19 06:36:01;;;;;;;;;;;23.80;32.40;;;;;;483760;246;1316;-72
2021/10/19 06:38:02;;;;;;;;;;;23.90;32.50;;;;;;483683;246;2208;-73
2021/10/19 06:40:04;;;;;;;;;;;23.80;32.60;;;;;;483856;246;1062;-72
2021/10/19 06:42:05;;;;;;;;;;;23.70;32.60;;;;;;483687;246;1231;-72
2021/10/19 06:44:06;;;;;;;;;;;23.70;32.70;;;;;;483762;246;1005;-72
2021/10/19 06:46:08;;;;;;;;;;;23.80;32.70;;;;;;483603;246;1056;-72
2021/10/19 06:48:09;;;;;;;;;;;23.60;32.90;;;;;;483749;246;1149;-72
2021/10/19 06:50:11;;;;;;;;;;;23.60;33.00;;;;;;483687;246;1032;-73
2021/10/19 06:52:12;;;;;;;;;;;23.70;33.00;;;;;;483526;246;1110;-72
2021/10/19 06:54:13;;;;;;;;;;;23.70;33.00;;;;;;483639;246;1192;-72
2021/10/19 06:56:15;;;;;;;;;;;23.60;33.10;;;;;;483763;246;1210;-72
2021/10/19 06:58:16;;;;;;;;;;;23.70;33.10;;;;;;483749;246;2220;-72
2021/10/19 07:00:18;;;;;;;;;;;23.70;33.10;;;;;;483592;246;1030;-72
2021/10/19 07:02:19;;;;;;;;;;;23.70;33.00;;;;;;483555;246;1092;-72
2021/10/19 07:04:20;;;;;;;;;;;23.70;33.10;;;;;;483643;246;1160;-72
2021/10/19 07:06:24;;;;;;;;;;;23.70;33.20;;;;;;483715;243;1181;-73
2021/10/19 07:08:23;;;;;;;;;;;23.70;33.20;;;;;;483573;246;1346;-72
2021/10/19 07:10:24;;;;;;;;;;;23.70;33.20;;;;;;483561;246;983;-72
2021/10/19 07:12:26;;;;;;;;;;;23.80;33.20;;;;;;483614;246;1416;-72
2021/10/19 07:14:27;;;;;;;;;;;23.80;33.30;;;;;;483646;246;1026;-73
2021/10/19 07:16:28;;;;;;;;;;;23.70;33.40;;;;;;483578;246;1191;-72
2021/10/19 07:18:30;;;;;;;;;;;23.70;33.50;;;;;;483795;246;2140;-72
2021/10/19 07:20:31;;;;;;;;;;;23.70;33.50;;;;;;483651;246;1138;-72
2021/10/19 07:22:32;;;;;;;;;;;23.70;33.50;;;;;;483591;246;1080;-72
2021/10/19 07:24:34;;;;;;;;;;;23.70;33.60;;;;;;483511;246;1065;-72
2021/10/19 07:26:35;;;;;;;;;;;23.70;33.60;;;;;;483475;246;1096;-72
2021/10/19 07:28:36;;;;;;;;;;;23.70;33.60;;;;;;483548;246;1226;-72
2021/10/19 07:30:38;;;;;;;;;;;23.70;33.70;;;;;;483442;246;1190;-72
2021/10/19 07:32:39;;;;;;;;;;;23.70;33.70;;;;;;483564;246;1084;-72
2021/10/19 07:34:40;;;;;;;;;;;23.80;33.60;;;;;;483692;246;1060;-72
2021/10/19 07:36:42;;;;;;;;;;;23.60;33.80;;;;;;483354;246;1084;-72
2021/10/19 07:38:45;;;;;;;;;;;23.60;34.00;;;;;;483443;246;2124;-72
2021/10/19 07:40:44;;;;;;;;;;;23.60;34.00;;;;;;483415;246;1300;-73
2021/10/19 07:42:46;;;;;;;;;;;23.60;34.10;;;;;;483494;246;1079;-72
2021/10/19 07:44:47;;;;;;;;;;;23.60;34.30;;;;;;483533;246;1183;-72
2021/10/19 07:46:51;;;;;;;;;;;23.60;34.20;;;;;;483514;246;1114;-72
2021/10/19 07:48:50;;;;;;;;;;;23.60;34.20;;;;;;483350;246;1423;-72
2021/10/19 07:50:51;;;;;;;;;;;23.60;34.40;;;;;;483338;246;1217;-72
2021/10/19 07:52:52;;;;;;;;;;;23.70;34.50;;;;;;483535;246;1100;-72
2021/10/19 07:54:54;;;;;;;;;;;23.60;34.60;;;;;;483547;246;1034;-72
2021/10/19 07:56:55;;;;;;;;;;;23.60;34.70;;;;;;483544;246;1127;-72
2021/10/19 07:58:56;;;;;;;;;;;23.60;34.80;;;;;;483495;244;2191;-73
2021/10/19 08:00:57;;;;;;;;;;;23.60;34.90;;;;;;483412;246;1183;-72
2021/10/19 08:02:59;;;;;;;;;;;23.60;34.90;;;;;;483348;246;1060;-72
2021/10/19 08:05:00;;;;;;;;;;;23.60;34.90;;;;;;483338;246;1590;-72
2021/10/19 08:07:01;;;;;;;;;;;23.60;35.00;;;;;;483194;246;1478;-72
2021/10/19 08:09:03;;;;;;;;;;;23.80;35.00;;;;;;483317;246;1081;-72
2021/10/19 08:11:05;;;;;;;;;;;23.60;35.10;;;;;;483234;246;1239;-72
2021/10/19 08:13:08;;;;;;;;;;;23.70;35.10;;;;;;483375;246;1235;-72
2021/10/19 08:15:08;;;;;;;;;;;23.70;35.20;;;;;;483825;243;1471;-72
2021/10/19 08:17:09;;;;;;;;;;;23.70;35.20;;;;;;484218;246;1048;-72
2021/10/19 08:19:10;;;;;;;;;;;23.70;35.10;;;;;;484017;246;2179;-72
2021/10/19 08:21:12;;;;;;;;;;;23.80;35.20;;;;;;483475;243;1199;-72
2021/10/19 08:23:13;;;;;;;;;;;23.80;35.20;;;;;;483493;246;1087;-72
2021/10/19 08:25:14;;;;;;;;;;;23.60;35.40;;;;;;483440;246;1086;-72
2021/10/19 08:27:16;;;;;;;;;;;23.70;35.50;;;;;;483458;246;1059;-72
2021/10/19 08:29:19;;;;;;;;;;;23.80;35.40;;;;;;483512;246;1087;-73
2021/10/19 08:31:19;;;;;;;;;;;23.80;35.40;;;;;;483223;246;1396;-73
2021/10/19 08:33:20;;;;;;;;;;;23.90;35.50;;;;;;483468;246;1043;-72
2021/10/19 08:35:22;;;;;;;;;;;23.80;35.50;;;;;;483591;246;1065;-72
2021/10/19 08:37:24;;;;;;;;;;;23.80;35.50;;;;;;483601;246;1207;-72
2021/10/19 08:39:25;;;;;;;;;;;23.90;35.60;;;;;;483581;246;2112;-72
2021/10/19 08:41:30;;;;;;;;;;;23.80;35.60;;;;;;483569;246;1315;-72
2021/10/19 08:43:27;;;;;;;;;;;23.90;35.70;;;;;;483417;246;1413;-72
2021/10/19 08:45:30;;;;;;;;;;;23.80;35.70;;;;;;483583;246;1151;-72
2021/10/19 08:47:31;;;;;;;;;;;23.90;35.90;;;;;;483488;246;1396;-72
2021/10/19 08:49:32;;;;;;;;;;;23.80;35.90;;;;;;483570;246;1047;-72
2021/10/19 08:51:33;;;;;;;;;;;23.90;36.00;;;;;;483527;246;1453;-72
2021/10/19 08:53:34;;;;;;;;;;;23.90;35.90;;;;;;483561;246;1063;-73
2021/10/19 08:55:36;;;;;;;;;;;23.60;36.40;;;;;;483474;246;995;-72
2021/10/19 08:57:37;;;;;;;;;;;23.60;36.60;;;;;;483507;246;1123;-72
2021/10/19 08:59:39;;;;;;;;;;;23.50;36.70;;;;;;483515;246;2175;-72
2021/10/19 09:01:40;;;;;;;;;;;23.60;36.60;;;;;;483442;246;1193;-72
2021/10/19 09:03:41;;;;;;;;;;;23.70;36.50;;;;;;483571;246;1438;-72
2021/10/19 09:05:43;;;;;;;;;;;23.60;36.60;;;;;;483552;246;1020;-72
2021/10/19 09:07:44;;;;;;;;;;;23.60;36.80;;;;;;483656;246;1157;-72
2021/10/19 09:09:45;;;;;;;;;;;23.60;36.90;;;;;;483618;246;1064;-73
2021/10/19 09:11:47;;;;;;;;;;;23.70;36.80;;;;;;483554;243;1244;-73
2021/10/19 09:13:48;;;;;;;;;;;23.70;36.90;;;;;;483630;246;1208;-73
2021/10/19 09:15:49;;;;;;;;;;;23.60;37.00;;;;;;483541;246;1013;-73
2021/10/19 09:17:51;;;;;;;;;;;23.60;37.00;;;;;;483600;246;1090;-73
2021/10/19 09:19:52;;;;;;;;;;;23.60;37.10;;;;;;483658;246;2120;-73
2021/10/19 09:21:53;;;;;;;;;;;23.60;37.00;;;;;;483615;246;1350;-73
2021/10/19 09:23:54;;;;;;;;;;;23.60;37.10;;;;;;483573;246;1221;-73
2021/10/19 09:25:57;;;;;;;;;;;23.60;37.30;;;;;;483429;246;1357;-73
2021/10/19 09:28:00;;;;;;;;;;;23.60;37.30;;;;;;483529;246;1185;-73
2021/10/19 09:29:58;;;;;;;;;;;23.60;37.30;;;;;;483409;246;1457;-73
2021/10/19 09:32:00;;;;;;;;;;;23.60;37.40;;;;;;483328;246;1090;-73
2021/10/19 09:34:06;;;;;;;;;;;23.70;37.40;;;;;;483440;246;1033;-73
2021/10/19 09:36:02;;;;;;;;;;;23.50;37.50;;;;;;483251;241;1301;-73
2021/10/19 09:38:05;;;;;;;;;;;23.60;37.60;;;;;;483376;246;1081;-73
2021/10/19 09:40:07;;;;;;;;;;;23.50;37.70;;;;;;483539;246;2187;-73
2021/10/19 09:42:08;;;;;;;;;;;23.50;37.80;;;;;;483583;246;1066;-73
2021/10/19 09:44:09;;;;;;;;;;;23.50;37.80;;;;;;483594;246;1191;-73
2021/10/19 09:46:11;;;;;;;;;;;23.50;37.80;;;;;;483647;246;1146;-73
2021/10/19 09:48:12;;;;;;;;;;;23.60;37.80;;;;;;483714;246;1168;-73
2021/10/19 09:50:13;;;;;;;;;;;23.60;37.80;;;;;;483686;246;1024;-73
2021/10/19 09:52:15;;;;;;;;;;;23.60;37.80;;;;;;483341;246;1204;-73
2021/10/19 09:54:16;;;;;;;;;;;23.60;37.80;;;;;;483477;246;1005;-73
2021/10/19 09:56:17;;;;;;;;;;;23.60;37.80;;;;;;483577;246;1275;-73
2021/10/19 09:58:19;;;;;;;;;;;23.60;37.90;;;;;;484309;246;1036;-73
2021/10/19 10:00:20;;;;;;;;;;;23.50;38.00;;;;;;483632;246;2195;-73
2021/10/19 10:02:21;;;;;;;;;;;23.50;38.10;;;;;;483645;246;1255;-73
2021/10/19 10:04:23;;;;;;;;;;;23.60;38.10;;;;;;483557;246;1095;-73
2021/10/19 10:06:24;;;;;;;;;;;23.70;38.00;;;;;;483650;246;1222;-73
2021/10/19 10:08:25;;;;;;;;;;;23.60;38.10;;;;;;483652;246;1366;-73
2021/10/19 10:10:27;;;;;;;;;;;23.60;38.00;;;;;;483717;246;1073;-73
2021/10/19 10:12:28;;;;;;;;;;;23.60;38.10;;;;;;483668;246;1346;-73
2021/10/19 10:14:29;;;;;;;;;;;23.60;38.10;;;;;;483642;246;1179;-73
2021/10/19 10:16:31;;;;;;;;;;;23.50;38.40;;;;;;483656;246;1067;-73
2021/10/19 10:18:32;;;;;;;;;;;23.60;38.40;;;;;;483628;246;1070;-73
2021/10/19 10:20:33;;;;;;;;;;;23.60;38.30;;;;;;483602;246;2207;-73
2021/10/19 10:22:35;;;;;;;;;;;23.60;38.40;;;;;;483688;246;1224;-73
2021/10/19 10:24:36;;;;;;;;;;;23.60;38.40;;;;;;483622;246;1084;-73
2021/10/19 10:26:39;;;;;;;;;;;23.60;38.50;;;;;;483820;246;1160;-73
2021/10/19 10:28:39;;;;;;;;;;;23.60;38.60;;;;;;483859;246;1337;-73
2021/10/19 10:30:40;;;;;;;;;;;23.60;38.70;;;;;;483515;246;1104;-73
2021/10/19 10:32:41;;;;;;;;;;;23.70;38.60;;;;;;483865;246;1062;-73
2021/10/19 10:34:43;;;;;;;;;;;23.70;38.70;;;;;;483815;246;1002;-73
2021/10/19 10:36:45;;;;;;;;;;;23.70;38.70;;;;;;483684;246;1051;-73
2021/10/19 10:38:46;;;;;;;;;;;23.70;38.80;;;;;;483777;246;980;-73
2021/10/19 10:40:48;;;;;;;;;;;23.70;38.80;;;;;;483599;246;2172;-73
2021/10/19 10:42:49;;;;;;;;;;;23.70;39.00;;;;;;483561;246;1110;-72
2021/10/19 10:44:50;;;;;;;;;;;23.70;39.10;;;;;;483645;246;1194;-73
2021/10/19 10:46:52;;;;;;;;;;;23.70;39.10;;;;;;483386;246;1197;-73
2021/10/19 10:48:56;;;;;;;;;;;23.70;39.10;;;;;;483448;246;1128;-73
2021/10/19 10:50:55;;;;;;;;;;;23.70;39.10;;;;;;483077;246;1419;-73
2021/10/19 10:52:56;;;;;;;;;;;23.80;39.10;;;;;;483458;246;1184;-73
2021/10/19 10:54:57;;;;;;;;;;;23.80;39.20;;;;;;483368;246;1032;-73
2021/10/19 10:57:00;;;;;;;;;;;23.80;39.20;;;;;;483078;246;1199;-73
2021/10/19 10:59:00;;;;;;;;;;;23.70;39.40;;;;;;483692;246;1301;-73
2021/10/19 11:01:01;;;;;;;;;;;23.70;39.40;;;;;;483581;246;2207;-73
2021/10/19 11:03:02;;;;;;;;;;;23.70;39.40;;;;;;483668;246;989;-73
2021/10/19 11:05:04;;;;;;;;;;;23.80;39.40;;;;;;484320;246;944;-73
2021/10/19 11:07:05;;;;;;;;;;;23.80;39.40;;;;;;483386;246;1092;-73
2021/10/19 11:09:07;;;;;;;;;;;23.70;39.60;;;;;;483438;246;1054;-73
2021/10/19 11:11:08;;;;;;;;;;;23.80;39.50;;;;;;483363;246;1200;-73
2021/10/19 11:13:09;;;;;;;;;;;23.90;39.50;;;;;;483601;246;1224;-73
2021/10/19 11:15:11;;;;;;;;;;;23.90;39.40;;;;;;483611;246;1145;-73
2021/10/19 11:17:12;;;;;;;;;;;24.00;39.40;;;;;;483340;246;1188;-73
2021/10/19 11:19:13;;;;;;;;;;;24.00;39.40;;;;;;483426;246;1040;-73
2021/10/19 11:21:15;;;;;;;;;;;24.00;39.40;;;;;;483300;246;2191;-73
2021/10/19 11:23:16;;;;;;;;;;;23.90;39.60;;;;;;483306;246;1090;-73
2021/10/19 11:25:17;;;;;;;;;;;23.90;39.60;;;;;;483334;246;1049;-73
2021/10/19 11:27:19;;;;;;;;;;;24.00;39.60;;;;;;483394;246;1143;-73
2021/10/19 11:29:20;;;;;;;;;;;23.90;39.70;;;;;;483483;246;1423;-73
2021/10/19 11:31:21;;;;;;;;;;;24.00;39.70;;;;;;483479;246;1193;-73
2021/10/19 11:33:23;;;;;;;;;;;24.00;39.70;;;;;;483547;246;1000;-72
2021/10/19 11:35:24;;;;;;;;;;;23.90;40.00;;;;;;483519;246;1213;-73
2021/10/19 11:37:25;;;;;;;;;;;23.80;40.10;;;;;;483655;246;1095;-73
2021/10/19 11:39:26;;;;;;;;;;;23.80;40.10;;;;;;483623;246;1082;-73
2021/10/19 11:41:28;;;;;;;;;;;23.80;40.20;;;;;;483424;246;1280;-73
2021/10/19 11:43:29;;;;;;;;;;;23.80;40.20;;;;;;483467;246;1193;-73
2021/10/19 11:45:31;;;;;;;;;;;23.80;40.30;;;;;;483532;246;1155;-73
2021/10/19 11:47:32;;;;;;;;;;;23.70;40.50;;;;;;483525;246;1142;-73
2021/10/19 11:49:33;;;;;;;;;;;23.80;40.60;;;;;;483494;246;1086;-72
2021/10/19 11:51:35;;;;;;;;;;;23.70;40.70;;;;;;483488;246;1126;-73
2021/10/19 11:53:36;;;;;;;;;;;23.70;40.70;;;;;;483523;246;1064;-73
2021/10/19 11:55:37;;;;;;;;;;;23.70;40.70;;;;;;483435;246;1126;-73
2021/10/19 11:57:39;;;;;;;;;;;23.60;40.80;;;;;;483310;246;1109;-73